sensor_id;sensor_type;location;lat;lon;timestamp;temperature;humidity
69715;HTU21D;56981;53.532;49.398;2023-03-14T00:02:12;-3.08;81.31
69715;HTU21D;56981;53.532;49.398;2023-03-14T00:04:38;-3.09;80.75
69715;HTU21D;56981;53.532;49.398;2023-03-14T00:07:04;-3.11;80.41
69715;HTU21D;56981;53.532;49.398;2023-03-14T00:09:30;-3.11;80.91
69715;HTU21D;56981;53.532;49.398;2023-03-14T00:11:57;-3.13;81.68
69715;HTU21D;56981;53.532;49.398;2023-03-14T00:14:23;-3.19;81.05
69715;HTU21D;56981;53.532;49.398;2023-03-14T00:16:49;-3.20;80.79
69715;HTU21D;56981;53.532;49.398;2023-03-14T00:19:16;-3.21;80.84
69715;HTU21D;56981;53.532;49.398;2023-03-14T00:21:42;-3.23;81.10
69715;HTU21D;56981;53.532;49.398;2023-03-14T00:24:08;-3.26;80.98
69715;HTU21D;56981;53.532;49.398;2023-03-14T00:26:35;-3.25;80.64
69715;HTU21D;56981;53.532;49.398;2023-03-14T00:29:01;-3.27;80.63
69715;HTU21D;56981;53.532;49.398;2023-03-14T00:31:27;-3.27;81.14
69715;HTU21D;56981;53.532;49.398;2023-03-14T00:33:53;-3.28;81.24
69715;HTU21D;56981;53.532;49.398;2023-03-14T00:36:20;-3.32;80.75
69715;HTU21D;56981;53.532;49.398;2023-03-14T00:38:48;-3.36;81.09
69715;HTU21D;56981;53.532;49.398;2023-03-14T00:41:18;-3.38;80.92
69715;HTU21D;56981;53.532;49.398;2023-03-14T00:43:45;-3.39;81.30
69715;HTU21D;56981;53.532;49.398;2023-03-14T00:46:12;-3.40;81.25
69715;HTU21D;56981;53.532;49.398;2023-03-14T00:48:39;-3.46;81.27
69715;HTU21D;56981;53.532;49.398;2023-03-14T00:51:06;-3.51;81.90
69715;HTU21D;56981;53.532;49.398;2023-03-14T00:53:38;-3.53;82.19
69715;HTU21D;56981;53.532;49.398;2023-03-14T00:56:09;-3.54;81.83
69715;HTU21D;56981;53.532;49.398;2023-03-14T00:58:36;-3.57;81.78
69715;HTU21D;56981;53.532;49.398;2023-03-14T01:01:16;-3.58;82.29
69715;HTU21D;56981;53.532;49.398;2023-03-14T01:03:45;-3.70;82.40
69715;HTU21D;56981;53.532;49.398;2023-03-14T01:06:16;-3.69;81.55
69715;HTU21D;56981;53.532;49.398;2023-03-14T01:08:44;-3.67;81.46
69715;HTU21D;56981;53.532;49.398;2023-03-14T01:11:37;-3.68;81.33
69715;HTU21D;56981;53.532;49.398;2023-03-14T01:14:03;-3.68;81.29
69715;HTU21D;56981;53.532;49.398;2023-03-14T01:16:33;-3.70;82.10
69715;HTU21D;56981;53.532;49.398;2023-03-14T01:19:00;-3.69;81.35
69715;HTU21D;56981;53.532;49.398;2023-03-14T01:21:34;-3.68;82.27
69715;HTU21D;56981;53.532;49.398;2023-03-14T01:24:03;-3.71;81.54
69715;HTU21D;56981;53.532;49.398;2023-03-14T01:26:31;-3.69;80.82
69715;HTU21D;56981;53.532;49.398;2023-03-14T01:28:58;-3.69;80.71
69715;HTU21D;56981;53.532;49.398;2023-03-14T01:31:25;-3.68;81.03
69715;HTU21D;56981;53.532;49.398;2023-03-14T01:33:52;-3.68;80.72
69715;HTU21D;56981;53.532;49.398;2023-03-14T01:36:18;-3.67;80.94
69715;HTU21D;56981;53.532;49.398;2023-03-14T01:38:45;-3.72;81.59
69715;HTU21D;56981;53.532;49.398;2023-03-14T01:41:20;-3.76;80.74
69715;HTU21D;56981;53.532;49.398;2023-03-14T01:43:48;-3.77;80.65
69715;HTU21D;56981;53.532;49.398;2023-03-14T01:51:19;-3.68;80.53
69715;HTU21D;56981;53.532;49.398;2023-03-14T01:53:47;-3.65;80.37
69715;HTU21D;56981;53.532;49.398;2023-03-14T01:56:17;-3.63;79.52
69715;HTU21D;56981;53.532;49.398;2023-03-14T01:58:47;-3.64;80.03
69715;HTU21D;56981;53.532;49.398;2023-03-14T02:01:16;-3.66;79.30
69715;HTU21D;56981;53.532;49.398;2023-03-14T02:03:54;-3.68;79.31
69715;HTU21D;56981;53.532;49.398;2023-03-14T02:06:26;-3.69;80.12
69715;HTU21D;56981;53.532;49.398;2023-03-14T02:08:53;-3.70;79.69
69715;HTU21D;56981;53.532;49.398;2023-03-14T02:11:19;-3.72;79.88
69715;HTU21D;56981;53.532;49.398;2023-03-14T02:13:46;-3.66;80.62
69715;HTU21D;56981;53.532;49.398;2023-03-14T02:16:12;-3.56;80.20
69715;HTU21D;56981;53.532;49.398;2023-03-14T02:18:38;-3.56;80.35
69715;HTU21D;56981;53.532;49.398;2023-03-14T02:26:22;-3.53;78.91
69715;HTU21D;56981;53.532;49.398;2023-03-14T02:28:51;-3.51;78.61
69715;HTU21D;56981;53.532;49.398;2023-03-14T02:31:20;-3.52;78.43
69715;HTU21D;56981;53.532;49.398;2023-03-14T02:33:47;-3.50;78.40
69715;HTU21D;56981;53.532;49.398;2023-03-14T02:36:14;-3.53;78.76
69715;HTU21D;56981;53.532;49.398;2023-03-14T02:38:47;-3.54;78.51
69715;HTU21D;56981;53.532;49.398;2023-03-14T02:41:16;-3.54;79.62
69715;HTU21D;56981;53.532;49.398;2023-03-14T02:43:42;-3.53;79.17
69715;HTU21D;56981;53.532;49.398;2023-03-14T02:46:11;-3.53;79.15
69715;HTU21D;56981;53.532;49.398;2023-03-14T02:48:42;-3.48;77.99
69715;HTU21D;56981;53.532;49.398;2023-03-14T02:51:08;-3.41;78.76
69715;HTU21D;56981;53.532;49.398;2023-03-14T02:53:36;-3.37;78.40
69715;HTU21D;56981;53.532;49.398;2023-03-14T02:56:03;-3.34;78.11
69715;HTU21D;56981;53.532;49.398;2023-03-14T02:58:30;-3.28;77.30
69715;HTU21D;56981;53.532;49.398;2023-03-14T03:00:56;-3.24;77.56
69715;HTU21D;56981;53.532;49.398;2023-03-14T03:03:23;-3.18;77.56
69715;HTU21D;56981;53.532;49.398;2023-03-14T03:05:54;-3.09;77.40
69715;HTU21D;56981;53.532;49.398;2023-03-14T03:08:23;-2.98;76.74
69715;HTU21D;56981;53.532;49.398;2023-03-14T03:10:50;-2.88;76.18
69715;HTU21D;56981;53.532;49.398;2023-03-14T03:13:17;-2.74;76.31
69715;HTU21D;56981;53.532;49.398;2023-03-14T03:15:43;-2.58;74.82
69715;HTU21D;56981;53.532;49.398;2023-03-14T03:18:10;-2.47;74.41
69715;HTU21D;56981;53.532;49.398;2023-03-14T03:20:37;-2.35;75.08
69715;HTU21D;56981;53.532;49.398;2023-03-14T03:23:04;-2.26;74.01
69715;HTU21D;56981;53.532;49.398;2023-03-14T03:25:30;-2.09;72.99
69715;HTU21D;56981;53.532;49.398;2023-03-14T03:27:57;-1.32;70.86
69715;HTU21D;56981;53.532;49.398;2023-03-14T03:30:23;-0.41;67.38
69715;HTU21D;56981;53.532;49.398;2023-03-14T03:32:49;0.45;66.71
69715;HTU21D;56981;53.532;49.398;2023-03-14T03:35:16;0.84;62.91
69715;HTU21D;56981;53.532;49.398;2023-03-14T03:37:42;1.14;60.83
69715;HTU21D;56981;53.532;49.398;2023-03-14T03:40:09;1.17;60.48
69715;HTU21D;56981;53.532;49.398;2023-03-14T03:42:35;0.60;61.86
69715;HTU21D;56981;53.532;49.398;2023-03-14T03:45:03;0.09;63.63
69715;HTU21D;56981;53.532;49.398;2023-03-14T03:47:31;0.10;64.72
69715;HTU21D;56981;53.532;49.398;2023-03-14T03:49:57;0.02;64.79
69715;HTU21D;56981;53.532;49.398;2023-03-14T03:52:23;-0.08;64.37
69715;HTU21D;56981;53.532;49.398;2023-03-14T03:54:49;0.35;63.92
69715;HTU21D;56981;53.532;49.398;2023-03-14T03:57:16;1.64;59.26
69715;HTU21D;56981;53.532;49.398;2023-03-14T03:59:42;2.49;56.29
69715;HTU21D;56981;53.532;49.398;2023-03-14T04:02:08;2.76;54.42
69715;HTU21D;56981;53.532;49.398;2023-03-14T04:04:36;1.46;58.38
69715;HTU21D;56981;53.532;49.398;2023-03-14T04:07:04;1.98;57.29
69715;HTU21D;56981;53.532;49.398;2023-03-14T04:09:30;2.86;54.45
69715;HTU21D;56981;53.532;49.398;2023-03-14T04:11:56;3.77;52.85
69715;HTU21D;56981;53.532;49.398;2023-03-14T04:14:23;4.48;50.85
69715;HTU21D;56981;53.532;49.398;2023-03-14T04:16:49;5.26;48.21
69715;HTU21D;56981;53.532;49.398;2023-03-14T04:19:16;5.40;46.48
69715;HTU21D;56981;53.532;49.398;2023-03-14T04:21:42;5.72;46.53
69715;HTU21D;56981;53.532;49.398;2023-03-14T04:24:13;6.74;43.96
69715;HTU21D;56981;53.532;49.398;2023-03-14T04:26:39;7.62;42.38
69715;HTU21D;56981;53.532;49.398;2023-03-14T04:29:05;8.35;39.38
69715;HTU21D;56981;53.532;49.398;2023-03-14T04:31:32;8.00;39.94
69715;HTU21D;56981;53.532;49.398;2023-03-14T04:33:58;7.99;40.59
69715;HTU21D;56981;53.532;49.398;2023-03-14T04:36:24;7.77;40.73
69715;HTU21D;56981;53.532;49.398;2023-03-14T04:38:50;8.16;40.12
69715;HTU21D;56981;53.532;49.398;2023-03-14T04:41:16;8.52;39.10
69715;HTU21D;56981;53.532;49.398;2023-03-14T04:43:43;8.60;38.53
69715;HTU21D;56981;53.532;49.398;2023-03-14T04:46:09;8.52;39.49
69715;HTU21D;56981;53.532;49.398;2023-03-14T04:48:35;9.29;38.08
69715;HTU21D;56981;53.532;49.398;2023-03-14T04:51:03;9.22;37.50
69715;HTU21D;56981;53.532;49.398;2023-03-14T04:53:30;8.88;38.30
69715;HTU21D;56981;53.532;49.398;2023-03-14T04:55:56;8.68;38.59
69715;HTU21D;56981;53.532;49.398;2023-03-14T04:58:23;9.62;36.29
69715;HTU21D;56981;53.532;49.398;2023-03-14T05:00:50;9.66;36.76
69715;HTU21D;56981;53.532;49.398;2023-03-14T05:03:17;10.35;35.97
69715;HTU21D;56981;53.532;49.398;2023-03-14T05:05:44;10.22;34.95
69715;HTU21D;56981;53.532;49.398;2023-03-14T05:08:11;10.86;34.61
69715;HTU21D;56981;53.532;49.398;2023-03-14T05:10:37;11.07;34.39
69715;HTU21D;56981;53.532;49.398;2023-03-14T05:13:04;11.44;32.81
69715;HTU21D;56981;53.532;49.398;2023-03-14T05:15:30;11.13;33.35
69715;HTU21D;56981;53.532;49.398;2023-03-14T05:17:56;11.00;33.67
69715;HTU21D;56981;53.532;49.398;2023-03-14T05:20:23;11.40;32.97
69715;HTU21D;56981;53.532;49.398;2023-03-14T05:22:50;11.10;33.13
69715;HTU21D;56981;53.532;49.398;2023-03-14T05:25:16;10.54;34.38
69715;HTU21D;56981;53.532;49.398;2023-03-14T05:27:42;10.67;35.95
69715;HTU21D;56981;53.532;49.398;2023-03-14T05:30:09;10.93;34.34
69715;HTU21D;56981;53.532;49.398;2023-03-14T05:32:38;11.53;34.44
69715;HTU21D;56981;53.532;49.398;2023-03-14T05:35:04;11.54;33.60
69715;HTU21D;56981;53.532;49.398;2023-03-14T05:37:31;11.88;32.28
69715;HTU21D;56981;53.532;49.398;2023-03-14T05:39:57;11.91;32.01
69715;HTU21D;56981;53.532;49.398;2023-03-14T05:42:23;11.14;33.22
69715;HTU21D;56981;53.532;49.398;2023-03-14T05:44:50;10.40;35.21
69715;HTU21D;56981;53.532;49.398;2023-03-14T05:47:16;9.71;37.18
69715;HTU21D;56981;53.532;49.398;2023-03-14T05:49:43;10.71;34.77
69715;HTU21D;56981;53.532;49.398;2023-03-14T05:52:09;10.86;35.99
69715;HTU21D;56981;53.532;49.398;2023-03-14T05:54:35;11.45;33.38
69715;HTU21D;56981;53.532;49.398;2023-03-14T05:57:01;12.45;32.70
69715;HTU21D;56981;53.532;49.398;2023-03-14T05:59:27;12.51;32.55
69715;HTU21D;56981;53.532;49.398;2023-03-14T06:01:53;12.22;31.48
69715;HTU21D;56981;53.532;49.398;2023-03-14T06:04:19;11.91;33.69
69715;HTU21D;56981;53.532;49.398;2023-03-14T06:06:45;11.10;34.23
69715;HTU21D;56981;53.532;49.398;2023-03-14T06:09:11;10.13;35.81
69715;HTU21D;56981;53.532;49.398;2023-03-14T06:11:37;10.67;34.95
69715;HTU21D;56981;53.532;49.398;2023-03-14T06:14:03;9.96;35.95
69715;HTU21D;56981;53.532;49.398;2023-03-14T06:16:29;9.80;36.53
69715;HTU21D;56981;53.532;49.398;2023-03-14T06:18:55;10.08;38.55
69715;HTU21D;56981;53.532;49.398;2023-03-14T06:21:21;10.59;34.89
69715;HTU21D;56981;53.532;49.398;2023-03-14T06:23:47;10.87;35.20
69715;HTU21D;56981;53.532;49.398;2023-03-14T06:26:13;11.48;34.47
69715;HTU21D;56981;53.532;49.398;2023-03-14T06:28:39;11.31;34.13
69715;HTU21D;56981;53.532;49.398;2023-03-14T06:31:05;11.10;35.05
69715;HTU21D;56981;53.532;49.398;2023-03-14T06:33:32;11.18;34.54
69715;HTU21D;56981;53.532;49.398;2023-03-14T06:35:58;10.59;36.12
69715;HTU21D;56981;53.532;49.398;2023-03-14T06:38:24;11.17;34.80
69715;HTU21D;56981;53.532;49.398;2023-03-14T06:40:50;10.92;35.71
69715;HTU21D;56981;53.532;49.398;2023-03-14T06:43:16;11.46;34.97
69715;HTU21D;56981;53.532;49.398;2023-03-14T06:45:43;11.46;34.32
69715;HTU21D;56981;53.532;49.398;2023-03-14T06:48:24;10.55;34.16
69715;HTU21D;56981;53.532;49.398;2023-03-14T06:50:50;9.89;37.72
69715;HTU21D;56981;53.532;49.398;2023-03-14T06:53:17;9.99;37.95
69715;HTU21D;56981;53.532;49.398;2023-03-14T06:55:43;10.58;37.11
69715;HTU21D;56981;53.532;49.398;2023-03-14T06:58:10;10.42;36.47
69715;HTU21D;56981;53.532;49.398;2023-03-14T07:00:36;10.22;36.83
69715;HTU21D;56981;53.532;49.398;2023-03-14T07:03:02;10.14;36.21
69715;HTU21D;56981;53.532;49.398;2023-03-14T07:05:29;9.84;37.25
69715;HTU21D;56981;53.532;49.398;2023-03-14T07:07:55;10.26;37.46
69715;HTU21D;56981;53.532;49.398;2023-03-14T07:10:22;9.92;36.64
69715;HTU21D;56981;53.532;49.398;2023-03-14T07:12:48;9.67;38.12
69715;HTU21D;56981;53.532;49.398;2023-03-14T07:15:15;9.05;37.03
69715;HTU21D;56981;53.532;49.398;2023-03-14T07:17:41;9.01;37.72
69715;HTU21D;56981;53.532;49.398;2023-03-14T07:20:08;8.79;39.76
69715;HTU21D;56981;53.532;49.398;2023-03-14T07:22:35;8.39;39.24
69715;HTU21D;56981;53.532;49.398;2023-03-14T07:25:01;7.55;40.78
69715;HTU21D;56981;53.532;49.398;2023-03-14T07:27:27;6.83;43.26
69715;HTU21D;56981;53.532;49.398;2023-03-14T07:29:53;6.49;42.93
69715;HTU21D;56981;53.532;49.398;2023-03-14T07:32:20;6.66;43.06
69715;HTU21D;56981;53.532;49.398;2023-03-14T07:34:46;6.80;43.30
69715;HTU21D;56981;53.532;49.398;2023-03-14T07:37:12;6.80;43.64
69715;HTU21D;56981;53.532;49.398;2023-03-14T07:39:39;6.71;42.24
69715;HTU21D;56981;53.532;49.398;2023-03-14T07:42:05;6.36;42.24
69715;HTU21D;56981;53.532;49.398;2023-03-14T07:44:32;6.48;42.72
69715;HTU21D;56981;53.532;49.398;2023-03-14T07:47:01;6.79;41.45
69715;HTU21D;56981;53.532;49.398;2023-03-14T07:49:27;6.58;44.93
69715;HTU21D;56981;53.532;49.398;2023-03-14T07:51:54;6.13;44.36
69715;HTU21D;56981;53.532;49.398;2023-03-14T07:54:22;5.49;44.96
69715;HTU21D;56981;53.532;49.398;2023-03-14T07:56:51;5.45;45.85
69715;HTU21D;56981;53.532;49.398;2023-03-14T07:59:18;5.33;45.78
69715;HTU21D;56981;53.532;49.398;2023-03-14T08:01:44;5.75;45.49
69715;HTU21D;56981;53.532;49.398;2023-03-14T08:04:10;6.12;45.80
69715;HTU21D;56981;53.532;49.398;2023-03-14T08:06:37;6.61;45.09
69715;HTU21D;56981;53.532;49.398;2023-03-14T08:09:04;6.60;44.39
69715;HTU21D;56981;53.532;49.398;2023-03-14T08:11:30;6.73;44.97
69715;HTU21D;56981;53.532;49.398;2023-03-14T08:13:56;6.87;44.34
69715;HTU21D;56981;53.532;49.398;2023-03-14T08:16:23;7.08;45.00
69715;HTU21D;56981;53.532;49.398;2023-03-14T08:18:49;7.14;43.07
69715;HTU21D;56981;53.532;49.398;2023-03-14T08:21:15;7.22;44.50
69715;HTU21D;56981;53.532;49.398;2023-03-14T08:23:41;7.15;44.77
69715;HTU21D;56981;53.532;49.398;2023-03-14T08:26:08;7.29;42.27
69715;HTU21D;56981;53.532;49.398;2023-03-14T08:28:34;7.54;41.04
69715;HTU21D;56981;53.532;49.398;2023-03-14T08:31:01;7.65;42.63
69715;HTU21D;56981;53.532;49.398;2023-03-14T08:33:28;7.54;40.01
69715;HTU21D;56981;53.532;49.398;2023-03-14T08:35:57;7.65;41.10
69715;HTU21D;56981;53.532;49.398;2023-03-14T08:38:23;7.58;41.54
69715;HTU21D;56981;53.532;49.398;2023-03-14T08:40:59;7.44;40.62
69715;HTU21D;56981;53.532;49.398;2023-03-14T08:43:26;7.37;42.27
69715;HTU21D;56981;53.532;49.398;2023-03-14T08:45:53;6.59;43.89
69715;HTU21D;56981;53.532;49.398;2023-03-14T08:48:26;6.59;44.09
69715;HTU21D;56981;53.532;49.398;2023-03-14T08:50:53;6.53;45.28
69715;HTU21D;56981;53.532;49.398;2023-03-14T08:53:19;6.41;44.24
69715;HTU21D;56981;53.532;49.398;2023-03-14T08:55:46;5.68;49.15
69715;HTU21D;56981;53.532;49.398;2023-03-14T08:58:12;5.49;46.21
69715;HTU21D;56981;53.532;49.398;2023-03-14T09:00:38;5.24;50.43
69715;HTU21D;56981;53.532;49.398;2023-03-14T09:03:05;4.74;50.35
69715;HTU21D;56981;53.532;49.398;2023-03-14T09:05:33;4.83;49.49
69715;HTU21D;56981;53.532;49.398;2023-03-14T09:08:03;4.65;48.18
69715;HTU21D;56981;53.532;49.398;2023-03-14T09:10:29;4.71;48.86
69715;HTU21D;56981;53.532;49.398;2023-03-14T09:12:55;4.77;49.32
69715;HTU21D;56981;53.532;49.398;2023-03-14T09:15:22;4.50;48.66
69715;HTU21D;56981;53.532;49.398;2023-03-14T09:17:48;4.41;51.58
69715;HTU21D;56981;53.532;49.398;2023-03-14T09:20:18;4.37;51.62
69715;HTU21D;56981;53.532;49.398;2023-03-14T09:22:50;4.31;51.23
69715;HTU21D;56981;53.532;49.398;2023-03-14T09:25:26;4.39;51.11
69715;HTU21D;56981;53.532;49.398;2023-03-14T09:27:53;4.28;50.35
69715;HTU21D;56981;53.532;49.398;2023-03-14T09:30:19;4.43;49.17
69715;HTU21D;56981;53.532;49.398;2023-03-14T09:32:45;4.16;50.73
69715;HTU21D;56981;53.532;49.398;2023-03-14T09:35:11;4.07;51.69
69715;HTU21D;56981;53.532;49.398;2023-03-14T09:37:37;4.00;51.70
69715;HTU21D;56981;53.532;49.398;2023-03-14T09:40:04;3.78;52.62
69715;HTU21D;56981;53.532;49.398;2023-03-14T09:42:36;3.76;53.93
69715;HTU21D;56981;53.532;49.398;2023-03-14T09:45:05;3.90;53.09
69715;HTU21D;56981;53.532;49.398;2023-03-14T09:47:33;3.98;48.76
69715;HTU21D;56981;53.532;49.398;2023-03-14T09:50:00;3.90;50.04
69715;HTU21D;56981;53.532;49.398;2023-03-14T09:52:32;3.77;51.59
69715;HTU21D;56981;53.532;49.398;2023-03-14T09:55:04;3.73;52.75
69715;HTU21D;56981;53.532;49.398;2023-03-14T09:57:33;3.73;51.33
69715;HTU21D;56981;53.532;49.398;2023-03-14T10:00:19;3.75;50.28
69715;HTU21D;56981;53.532;49.398;2023-03-14T10:03:33;3.80;50.49
69715;HTU21D;56981;53.532;49.398;2023-03-14T10:06:00;3.89;49.85
69715;HTU21D;56981;53.532;49.398;2023-03-14T10:08:27;3.79;50.91
69715;HTU21D;56981;53.532;49.398;2023-03-14T10:10:53;3.88;51.34
69715;HTU21D;56981;53.532;49.398;2023-03-14T10:13:23;3.94;51.88
69715;HTU21D;56981;53.532;49.398;2023-03-14T10:16:04;3.97;50.41
69715;HTU21D;56981;53.532;49.398;2023-03-14T10:18:33;3.98;48.89
69715;HTU21D;56981;53.532;49.398;2023-03-14T10:23:30;3.90;51.08
69715;HTU21D;56981;53.532;49.398;2023-03-14T10:26:05;3.99;51.12
69715;HTU21D;56981;53.532;49.398;2023-03-14T10:28:44;3.76;50.05
69715;HTU21D;56981;53.532;49.398;2023-03-14T10:31:11;3.86;51.41
69715;HTU21D;56981;53.532;49.398;2023-03-14T10:33:37;3.78;52.95
69715;HTU21D;56981;53.532;49.398;2023-03-14T10:36:18;3.76;53.10
69715;HTU21D;56981;53.532;49.398;2023-03-14T10:39:39;3.77;53.97
69715;HTU21D;56981;53.532;49.398;2023-03-14T10:42:29;3.78;53.26
69715;HTU21D;56981;53.532;49.398;2023-03-14T10:45:03;3.78;54.83
69715;HTU21D;56981;53.532;49.398;2023-03-14T10:47:32;3.88;54.76
69715;HTU21D;56981;53.532;49.398;2023-03-14T10:50:25;3.73;52.62
69715;HTU21D;56981;53.532;49.398;2023-03-14T10:52:55;3.73;51.84
69715;HTU21D;56981;53.532;49.398;2023-03-14T10:55:26;3.65;52.69
69715;HTU21D;56981;53.532;49.398;2023-03-14T10:57:52;3.63;54.00
69715;HTU21D;56981;53.532;49.398;2023-03-14T11:00:22;3.76;52.93
69715;HTU21D;56981;53.532;49.398;2023-03-14T11:03:06;3.75;53.62
69715;HTU21D;56981;53.532;49.398;2023-03-14T11:05:36;3.68;52.41
69715;HTU21D;56981;53.532;49.398;2023-03-14T11:08:12;3.75;53.65
69715;HTU21D;56981;53.532;49.398;2023-03-14T11:10:45;3.73;51.93
69715;HTU21D;56981;53.532;49.398;2023-03-14T11:13:16;3.55;50.74
69715;HTU21D;56981;53.532;49.398;2023-03-14T11:29:28;3.09;47.79
69715;HTU21D;56981;53.532;49.398;2023-03-14T11:31:59;3.05;47.24
69715;HTU21D;56981;53.532;49.398;2023-03-14T11:34:29;2.89;46.06
69715;HTU21D;56981;53.532;49.398;2023-03-14T11:37:05;2.89;46.98
69715;HTU21D;56981;53.532;49.398;2023-03-14T11:39:59;2.83;47.31
69715;HTU21D;56981;53.532;49.398;2023-03-14T11:42:29;2.90;47.73
69715;HTU21D;56981;53.532;49.398;2023-03-14T11:44:57;2.90;47.03
69715;HTU21D;56981;53.532;49.398;2023-03-14T11:47:41;2.85;47.14
69715;HTU21D;56981;53.532;49.398;2023-03-14T11:50:27;2.93;48.85
69715;HTU21D;56981;53.532;49.398;2023-03-14T11:56:02;3.12;48.32
69715;HTU21D;56981;53.532;49.398;2023-03-14T11:58:38;3.11;48.70
69715;HTU21D;56981;53.532;49.398;2023-03-14T12:01:09;3.06;49.35
69715;HTU21D;56981;53.532;49.398;2023-03-14T12:04:25;3.00;49.33
69715;HTU21D;56981;53.532;49.398;2023-03-14T12:06:57;2.97;51.40
69715;HTU21D;56981;53.532;49.398;2023-03-14T12:09:22;2.99;51.59
69715;HTU21D;56981;53.532;49.398;2023-03-14T12:11:55;2.91;52.09
69715;HTU21D;56981;53.532;49.398;2023-03-14T12:17:34;2.79;54.80
69715;HTU21D;56981;53.532;49.398;2023-03-14T12:25:14;2.75;57.31
69715;HTU21D;56981;53.532;49.398;2023-03-14T12:27:47;2.74;58.12
69715;HTU21D;56981;53.532;49.398;2023-03-14T12:30:34;2.69;57.13
69715;HTU21D;56981;53.532;49.398;2023-03-14T12:35:43;2.51;57.96
69715;HTU21D;56981;53.532;49.398;2023-03-14T12:49:53;2.20;58.40
69715;HTU21D;56981;53.532;49.398;2023-03-14T12:52:36;2.20;59.70
69715;HTU21D;56981;53.532;49.398;2023-03-14T12:55:21;2.26;58.51
69715;HTU21D;56981;53.532;49.398;2023-03-14T12:58:13;2.30;57.94
69715;HTU21D;56981;53.532;49.398;2023-03-14T13:00:39;2.32;59.05
69715;HTU21D;56981;53.532;49.398;2023-03-14T13:05:59;2.37;58.45
69715;HTU21D;56981;53.532;49.398;2023-03-14T13:11:18;2.38;58.76
69715;HTU21D;56981;53.532;49.398;2023-03-14T13:13:52;2.37;58.74
69715;HTU21D;56981;53.532;49.398;2023-03-14T13:16:21;2.40;59.24
69715;HTU21D;56981;53.532;49.398;2023-03-14T13:19:34;2.39;56.46
69715;HTU21D;56981;53.532;49.398;2023-03-14T13:21:37;2.36;58.35
69715;HTU21D;56981;53.532;49.398;2023-03-14T13:24:20;2.41;57.13
69715;HTU21D;56981;53.532;49.398;2023-03-14T13:26:46;2.38;56.80
69715;HTU21D;56981;53.532;49.398;2023-03-14T13:29:20;2.40;55.79
69715;HTU21D;56981;53.532;49.398;2023-03-14T13:31:48;2.35;55.61
69715;HTU21D;56981;53.532;49.398;2023-03-14T13:34:15;2.28;54.96
69715;HTU21D;56981;53.532;49.398;2023-03-14T13:36:41;2.30;55.04
69715;HTU21D;56981;53.532;49.398;2023-03-14T13:39:13;2.26;54.02
69715;HTU21D;56981;53.532;49.398;2023-03-14T13:41:40;2.27;55.35
69715;HTU21D;56981;53.532;49.398;2023-03-14T13:44:09;2.23;56.39
69715;HTU21D;56981;53.532;49.398;2023-03-14T13:46:39;2.17;54.38
69715;HTU21D;56981;53.532;49.398;2023-03-14T13:49:12;2.11;55.23
69715;HTU21D;56981;53.532;49.398;2023-03-14T13:51:43;2.05;56.45
69715;HTU21D;56981;53.532;49.398;2023-03-14T13:54:19;2.03;56.28
69715;HTU21D;56981;53.532;49.398;2023-03-14T13:56:46;2.01;57.08
69715;HTU21D;56981;53.532;49.398;2023-03-14T13:59:27;1.96;56.76
69715;HTU21D;56981;53.532;49.398;2023-03-14T14:01:54;1.96;57.65
69715;HTU21D;56981;53.532;49.398;2023-03-14T14:04:23;1.98;57.19
69715;HTU21D;56981;53.532;49.398;2023-03-14T14:09:20;1.92;57.87
69715;HTU21D;56981;53.532;49.398;2023-03-14T14:11:55;1.88;57.32
69715;HTU21D;56981;53.532;49.398;2023-03-14T14:16:54;1.80;57.45
69715;HTU21D;56981;53.532;49.398;2023-03-14T14:19:22;1.72;58.51
69715;HTU21D;56981;53.532;49.398;2023-03-14T14:21:50;1.68;57.32
69715;HTU21D;56981;53.532;49.398;2023-03-14T14:24:16;1.66;58.63
69715;HTU21D;56981;53.532;49.398;2023-03-14T14:26:54;1.65;58.27
69715;HTU21D;56981;53.532;49.398;2023-03-14T14:29:29;1.58;59.13
69715;HTU21D;56981;53.532;49.398;2023-03-14T14:34:29;1.49;60.01
69715;HTU21D;56981;53.532;49.398;2023-03-14T14:36:55;1.45;60.16
69715;HTU21D;56981;53.532;49.398;2023-03-14T14:39:24;1.41;61.56
69715;HTU21D;56981;53.532;49.398;2023-03-14T14:41:52;1.41;60.78
69715;HTU21D;56981;53.532;49.398;2023-03-14T14:44:27;1.37;60.88
69715;HTU21D;56981;53.532;49.398;2023-03-14T14:46:55;1.34;61.63
69715;HTU21D;56981;53.532;49.398;2023-03-14T14:49:31;1.33;61.76
69715;HTU21D;56981;53.532;49.398;2023-03-14T14:52:19;1.33;62.11
69715;HTU21D;56981;53.532;49.398;2023-03-14T14:54:59;1.31;61.67
69715;HTU21D;56981;53.532;49.398;2023-03-14T14:57:28;1.28;62.67
69715;HTU21D;56981;53.532;49.398;2023-03-14T15:00:01;1.25;62.22
69715;HTU21D;56981;53.532;49.398;2023-03-14T15:02:40;1.24;62.14
69715;HTU21D;56981;53.532;49.398;2023-03-14T15:05:19;1.23;62.45
69715;HTU21D;56981;53.532;49.398;2023-03-14T15:07:46;1.21;63.37
69715;HTU21D;56981;53.532;49.398;2023-03-14T15:10:17;1.19;63.41
69715;HTU21D;56981;53.532;49.398;2023-03-14T15:12:44;1.16;63.22
69715;HTU21D;56981;53.532;49.398;2023-03-14T15:15:11;1.16;64.23
69715;HTU21D;56981;53.532;49.398;2023-03-14T15:17:38;1.12;63.91
69715;HTU21D;56981;53.532;49.398;2023-03-14T15:20:06;1.10;63.16
69715;HTU21D;56981;53.532;49.398;2023-03-14T15:23:09;1.09;63.91
69715;HTU21D;56981;53.532;49.398;2023-03-14T15:25:51;1.09;63.91
69715;HTU21D;56981;53.532;49.398;2023-03-14T15:28:19;1.09;66.02
69715;HTU21D;56981;53.532;49.398;2023-03-14T15:30:48;1.08;65.23
69715;HTU21D;56981;53.532;49.398;2023-03-14T15:33:14;1.09;64.52
69715;HTU21D;56981;53.532;49.398;2023-03-14T15:35:40;1.09;65.01
69715;HTU21D;56981;53.532;49.398;2023-03-14T15:38:20;1.09;65.58
69715;HTU21D;56981;53.532;49.398;2023-03-14T15:40:49;1.09;65.45
69715;HTU21D;56981;53.532;49.398;2023-03-14T15:43:19;1.08;65.72
69715;HTU21D;56981;53.532;49.398;2023-03-14T15:45:45;1.09;65.11
69715;HTU21D;56981;53.532;49.398;2023-03-14T15:48:15;1.08;65.98
69715;HTU21D;56981;53.532;49.398;2023-03-14T15:50:42;1.08;66.65
69715;HTU21D;56981;53.532;49.398;2023-03-14T15:53:08;1.07;66.28
69715;HTU21D;56981;53.532;49.398;2023-03-14T15:55:34;1.07;66.59
69715;HTU21D;56981;53.532;49.398;2023-03-14T15:58:00;1.08;66.33
69715;HTU21D;56981;53.532;49.398;2023-03-14T16:00:28;1.08;67.01
69715;HTU21D;56981;53.532;49.398;2023-03-14T16:02:58;1.08;67.14
69715;HTU21D;56981;53.532;49.398;2023-03-14T16:05:24;1.09;67.00
69715;HTU21D;56981;53.532;49.398;2023-03-14T16:07:50;1.09;67.49
69715;HTU21D;56981;53.532;49.398;2023-03-14T16:10:16;1.09;67.28
69715;HTU21D;56981;53.532;49.398;2023-03-14T16:12:42;1.11;67.62
69715;HTU21D;56981;53.532;49.398;2023-03-14T16:15:09;1.14;67.94
69715;HTU21D;56981;53.532;49.398;2023-03-14T16:17:35;1.20;67.55
69715;HTU21D;56981;53.532;49.398;2023-03-14T16:20:04;1.25;67.71
69715;HTU21D;56981;53.532;49.398;2023-03-14T16:22:30;1.31;66.75
69715;HTU21D;56981;53.532;49.398;2023-03-14T16:25:04;1.35;66.84
69715;HTU21D;56981;53.532;49.398;2023-03-14T16:27:34;1.41;65.91
69715;HTU21D;56981;53.532;49.398;2023-03-14T16:29:59;1.46;66.90